KEHC

East Cameron 278

East Cameron 278, Louisiana, USA
METAR KEHC 192255Z AUTO 17007KT 9SM SCT025 BKN030 BKN035 31/23 A2995 RMK A01
Observed Flight Rules
Aug-19 @ 22:55 UTC (11 minutes ago) Marginal Visual Flight Rules
Wind Visibility Clouds
170° at 7 knots 9 miles
  • Scattered at 2,500' AGL
  • Broken at 3,000' AGL
  • Broken at 3,500' AGL
Temperatures Readings
Current 31°C / 88°F
Dewpoint 23°C / 73°F
Humidity 62%
Altimeter 29.95" Hg
Pressure 1014 hPa
Elevation 31
METAR KEHC 192255Z AUTO 17007KT 9SM SCT025 BKN030 BKN035 31/23 A2995 RMK A01
Observed Flight Rules
Aug-19 @ 22:55 UTC
(11 minutes ago)
MVFR
Wind Visibility
170° at 7 knots 9 miles
Clouds
  • Scattered at 2,500' AGL
  • Broken at 3,000' AGL
  • Broken at 3,500' AGL
Temperature Dewpoint
31°C / 88°F 23°C / 73°F
Humidity Altimeter Pressure
62% 29.95" Hg 1014 hPa